createdAt,value
2017-10-14T00:03:52.145Z,13.70
2017-10-14T00:06:21.264Z,13.40
2017-10-14T00:08:50.674Z,13.60
2017-10-14T00:11:20.849Z,13.50
2017-10-14T00:13:50.174Z,13.60
2017-10-14T00:16:19.465Z,13.60
2017-10-14T00:18:48.919Z,13.70
2017-10-14T00:21:18.385Z,13.80
2017-10-14T00:23:47.809Z,13.80
2017-10-14T00:26:17.184Z,13.60
2017-10-14T00:28:46.427Z,13.50
2017-10-14T00:31:15.940Z,13.40
2017-10-14T00:33:45.085Z,13.30
2017-10-14T00:36:14.661Z,13.10
2017-10-14T00:38:44.061Z,13.20
2017-10-14T00:41:13.493Z,12.90
2017-10-14T00:43:42.914Z,12.90
2017-10-14T00:46:12.275Z,12.80
2017-10-14T00:48:41.846Z,12.90
2017-10-14T00:51:11.830Z,12.70
2017-10-14T00:53:41.707Z,12.80
2017-10-14T00:56:11.045Z,12.60
2017-10-14T00:58:40.424Z,12.50
2017-10-14T01:01:09.662Z,12.50
2017-10-14T01:03:38.978Z,12.40
2017-10-14T01:06:10.879Z,12.20
2017-10-14T01:08:40.241Z,12.20
2017-10-14T01:11:09.937Z,12.40
2017-10-14T01:13:40.116Z,11.80
2017-10-14T01:16:09.460Z,11.90
2017-10-14T01:18:38.650Z,11.30
2017-10-14T01:21:08.147Z,11.40
2017-10-14T01:23:37.485Z,11.40
2017-10-14T01:26:07.634Z,10.90
2017-10-14T01:28:36.870Z,10.80
2017-10-14T01:31:06.258Z,10.80
2017-10-14T01:33:35.534Z,10.80
2017-10-14T01:36:04.711Z,11.00
2017-10-14T01:38:34.087Z,10.80
2017-10-14T01:41:03.412Z,10.60
2017-10-14T01:43:33.725Z,10.60
2017-10-14T01:46:03.367Z,10.50
2017-10-14T01:48:32.908Z,10.50
2017-10-14T01:51:02.317Z,10.60
2017-10-14T01:53:31.818Z,10.40
2017-10-14T01:56:01.821Z,10.50
2017-10-14T01:58:31.479Z,10.60
2017-10-14T02:01:01.426Z,10.50
2017-10-14T02:03:30.783Z,10.30
2017-10-14T02:06:00.072Z,10.00
2017-10-14T02:08:31.625Z,9.90
2017-10-14T02:11:01.268Z,9.70
2017-10-14T02:13:30.446Z,9.60
2017-10-14T02:16:00.506Z,9.30
2017-10-14T02:18:30.103Z,9.30
2017-10-14T02:20:59.903Z,9.40
2017-10-14T02:23:29.355Z,9.40
2017-10-14T02:25:58.909Z,8.90
2017-10-14T02:28:28.320Z,9.00
2017-10-14T02:30:57.557Z,9.00
2017-10-14T02:33:26.968Z,8.90
2017-10-14T02:35:56.328Z,8.80
2017-10-14T02:38:25.456Z,8.70
2017-10-14T02:40:54.865Z,8.70
2017-10-14T02:43:23.724Z,8.50
2017-10-14T02:45:52.571Z,8.50
2017-10-14T02:48:22.397Z,8.50
2017-10-14T02:50:51.633Z,8.40
2017-10-14T02:53:20.735Z,8.60
2017-10-14T02:55:50.071Z,8.40
2017-10-14T02:58:19.576Z,8.40
2017-10-14T03:00:48.870Z,8.30
2017-10-14T03:03:18.333Z,8.30
2017-10-14T03:05:47.682Z,8.40
2017-10-14T03:08:16.713Z,8.20
2017-10-14T03:10:46.261Z,8.10
2017-10-14T03:13:15.528Z,8.10
2017-10-14T03:15:44.747Z,8.00
2017-10-14T03:18:13.993Z,7.90
2017-10-14T03:20:43.377Z,8.00
2017-10-14T03:23:12.689Z,8.10
2017-10-14T03:25:41.864Z,7.80
2017-10-14T03:28:11.032Z,7.70
2017-10-14T03:30:40.155Z,7.80
2017-10-14T03:33:08.941Z,7.70
2017-10-14T03:35:37.669Z,7.60
2017-10-14T03:38:06.998Z,7.70
2017-10-14T03:40:36.258Z,7.70
2017-10-14T03:43:06.180Z,7.70
2017-10-14T03:45:35.595Z,7.70
2017-10-14T03:48:04.972Z,7.60
2017-10-14T03:50:34.153Z,7.70
2017-10-14T03:53:02.943Z,7.80
2017-10-14T03:55:31.727Z,7.80
2017-10-14T03:58:00.505Z,7.70
2017-10-14T04:00:29.635Z,7.70
2017-10-14T04:02:59.190Z,7.40
2017-10-14T04:05:28.431Z,7.40
2017-10-14T04:07:57.534Z,7.30
2017-10-14T04:10:26.401Z,7.30
2017-10-14T04:12:56.802Z,7.20
2017-10-14T04:15:26.319Z,7.40
2017-10-14T04:17:55.918Z,7.40
2017-10-14T04:20:25.461Z,7.30
2017-10-14T04:22:54.999Z,7.40
2017-10-14T04:25:25.399Z,7.40
2017-10-14T04:27:56.145Z,7.00
2017-10-14T04:30:25.594Z,7.40
2017-10-14T04:32:54.825Z,7.10
2017-10-14T04:35:24.325Z,6.90
2017-10-14T04:37:53.499Z,7.00
2017-10-14T04:40:22.358Z,6.80
2017-10-14T04:42:51.655Z,6.50
2017-10-14T04:45:21.891Z,6.80
2017-10-14T04:47:51.906Z,6.70
2017-10-14T04:50:21.180Z,6.80
2017-10-14T04:52:50.731Z,7.00
2017-10-14T04:55:20.051Z,6.70
2017-10-14T04:57:52.098Z,7.10
2017-10-14T05:00:21.481Z,6.70
2017-10-14T05:02:51.005Z,7.00
2017-10-14T05:05:20.370Z,6.90
2017-10-14T05:07:50.053Z,6.80
2017-10-14T05:10:19.267Z,7.00
2017-10-14T05:12:48.646Z,7.00
2017-10-14T05:15:18.850Z,7.00
2017-10-14T05:17:48.144Z,7.10
2017-10-14T05:20:17.336Z,7.10
2017-10-14T05:22:46.932Z,7.00
2017-10-14T05:25:16.178Z,7.00
2017-10-14T05:27:45.625Z,7.00
2017-10-14T05:30:15.208Z,7.00
2017-10-14T05:32:44.680Z,6.60
2017-10-14T05:35:14.114Z,6.70
2017-10-14T05:37:43.493Z,6.50
2017-10-14T05:40:13.028Z,6.60
2017-10-14T05:42:42.322Z,6.70
2017-10-14T05:45:11.752Z,6.50
2017-10-14T05:47:41.771Z,6.70
2017-10-14T05:50:11.913Z,6.70
2017-10-14T05:52:41.224Z,6.40
2017-10-14T05:55:10.345Z,6.60
2017-10-14T05:57:39.436Z,6.70
2017-10-14T06:00:08.723Z,6.70
2017-10-14T06:02:37.943Z,6.40
2017-10-14T06:05:07.810Z,6.50
2017-10-14T06:07:37.424Z,6.50
2017-10-14T06:10:06.993Z,6.70
2017-10-14T06:12:36.121Z,6.70
2017-10-14T06:15:05.301Z,6.40
2017-10-14T06:17:34.872Z,6.60
2017-10-14T06:20:04.441Z,6.70
2017-10-14T06:22:33.606Z,6.50
2017-10-14T06:25:03.019Z,6.50
2017-10-14T06:27:32.214Z,6.70
2017-10-14T06:30:01.601Z,6.50
2017-10-14T06:32:30.794Z,6.80
2017-10-14T06:34:59.866Z,6.50
2017-10-14T06:37:29.210Z,6.70
2017-10-14T06:39:58.345Z,6.20
2017-10-14T06:42:27.770Z,6.40
2017-10-14T06:44:57.082Z,6.40
2017-10-14T06:47:26.394Z,6.30
2017-10-14T06:49:55.680Z,6.10
2017-10-14T06:52:24.981Z,5.80
2017-10-14T06:54:54.396Z,5.80
2017-10-14T06:57:23.747Z,5.90
2017-10-14T06:59:53.213Z,5.90
2017-10-14T07:02:22.539Z,5.80
2017-10-14T07:04:52.764Z,6.00
2017-10-14T07:07:23.026Z,5.80
2017-10-14T07:09:52.153Z,5.60
2017-10-14T07:12:21.494Z,5.80
2017-10-14T07:14:51.037Z,5.60
2017-10-14T07:17:20.922Z,5.80
2017-10-14T07:19:51.134Z,5.80
2017-10-14T07:22:20.682Z,5.80
2017-10-14T07:24:50.068Z,5.80
2017-10-14T07:27:19.540Z,5.50
2017-10-14T07:29:49.665Z,5.80
2017-10-14T07:32:19.113Z,5.40
2017-10-14T07:34:48.475Z,5.80
2017-10-14T07:37:18.246Z,5.20
2017-10-14T07:39:47.552Z,5.30
2017-10-14T07:42:16.893Z,5.20
2017-10-14T07:44:46.053Z,5.20
2017-10-14T07:47:15.435Z,5.50
2017-10-14T07:49:44.725Z,5.20
2017-10-14T07:52:14.198Z,5.40
2017-10-14T07:54:43.387Z,5.20
2017-10-14T07:57:13.568Z,5.50
2017-10-14T07:59:42.898Z,5.10
2017-10-14T08:02:13.240Z,5.10
2017-10-14T08:04:42.614Z,5.20
2017-10-14T08:07:11.994Z,5.30
2017-10-14T08:09:41.362Z,5.10
2017-10-14T08:12:10.734Z,5.00
2017-10-14T08:14:40.695Z,4.90
2017-10-14T08:17:10.380Z,4.90
2017-10-14T08:19:39.838Z,4.90
2017-10-14T08:22:10.155Z,5.00
2017-10-14T08:24:39.377Z,4.90
2017-10-14T08:27:28.273Z,4.90
2017-10-14T08:35:45.390Z,5.00
2017-10-14T08:38:15.369Z,4.90
2017-10-14T08:40:44.712Z,4.90
2017-10-14T08:46:19.931Z,4.90
2017-10-14T08:48:49.301Z,4.90
2017-10-14T08:51:19.211Z,4.80
2017-10-14T08:53:48.396Z,5.00
2017-10-14T08:56:17.732Z,4.90
2017-10-14T08:58:47.061Z,4.90
2017-10-14T09:01:16.519Z,4.90
2017-10-14T09:03:45.696Z,4.90
2017-10-14T09:06:14.953Z,4.80
2017-10-14T09:08:44.384Z,4.90
2017-10-14T09:11:13.751Z,4.90
2017-10-14T09:13:43.043Z,4.90
2017-10-14T09:16:12.568Z,4.90
2017-10-14T09:18:41.755Z,4.80
2017-10-14T09:21:11.001Z,4.60
2017-10-14T09:23:41.309Z,4.70
2017-10-14T09:26:10.786Z,4.60
2017-10-14T09:28:40.273Z,4.80
2017-10-14T09:31:09.332Z,4.60
2017-10-14T09:33:39.362Z,4.80
2017-10-14T09:36:08.824Z,4.60
2017-10-14T09:38:38.018Z,4.70
2017-10-14T09:41:07.520Z,4.50
2017-10-14T09:43:36.620Z,4.60
2017-10-14T09:46:06.028Z,4.60
2017-10-14T09:48:35.122Z,4.60
2017-10-14T09:51:04.489Z,4.60
2017-10-14T09:53:34.080Z,4.60
2017-10-14T09:56:03.234Z,4.50
2017-10-14T09:58:32.444Z,4.60
2017-10-14T10:01:01.843Z,4.60
2017-10-14T10:03:31.229Z,4.60
2017-10-14T10:06:00.568Z,4.70
2017-10-14T10:08:30.069Z,4.70
2017-10-14T10:10:59.591Z,4.50
2017-10-14T10:13:29.570Z,4.50
2017-10-14T10:15:58.632Z,4.50
2017-10-14T10:18:28.076Z,4.70
2017-10-14T10:20:57.291Z,4.60
2017-10-14T10:23:26.731Z,4.30
2017-10-14T10:25:56.951Z,4.40
2017-10-14T10:28:26.237Z,4.40
2017-10-14T10:30:55.502Z,4.30
2017-10-14T10:33:24.862Z,4.60
2017-10-14T10:35:54.014Z,4.40
2017-10-14T10:38:23.679Z,4.30
2017-10-14T10:40:53.210Z,4.30
2017-10-14T10:43:22.670Z,4.40
2017-10-14T10:45:52.259Z,4.40
2017-10-14T10:48:22.630Z,4.30
2017-10-14T10:50:51.923Z,4.30
2017-10-14T10:53:21.196Z,4.30
2017-10-14T10:55:50.689Z,4.30
2017-10-14T10:58:20.862Z,4.40
2017-10-14T11:00:50.115Z,4.30
2017-10-14T11:03:19.233Z,4.40
2017-10-14T11:05:48.622Z,4.30
2017-10-14T11:08:18.147Z,4.70
2017-10-14T11:10:47.310Z,4.70
2017-10-14T11:13:16.730Z,4.60
2017-10-14T11:15:46.919Z,5.10
2017-10-14T11:18:16.175Z,4.50
2017-10-14T11:20:45.654Z,4.90
2017-10-14T11:23:14.999Z,4.90
2017-10-14T11:25:44.121Z,4.80
2017-10-14T11:28:14.586Z,5.20
2017-10-14T11:30:44.136Z,5.20
2017-10-14T11:33:13.680Z,5.10
2017-10-14T11:35:43.087Z,5.20
2017-10-14T11:38:12.478Z,5.20
2017-10-14T11:40:42.877Z,5.50
2017-10-14T11:43:12.236Z,5.50
2017-10-14T11:45:41.662Z,5.50
2017-10-14T11:48:10.929Z,5.40
2017-10-14T11:50:40.139Z,5.70
2017-10-14T11:53:09.326Z,5.50
2017-10-14T11:55:39.135Z,5.70
2017-10-14T11:58:08.396Z,5.50
2017-10-14T12:00:37.740Z,5.60
2017-10-14T12:03:06.945Z,5.50
2017-10-14T12:05:36.226Z,5.80
2017-10-14T12:08:05.412Z,6.00
2017-10-14T12:10:34.860Z,5.80
2017-10-14T12:13:04.396Z,5.90
2017-10-14T12:15:33.615Z,5.80
2017-10-14T12:18:02.823Z,5.80
2017-10-14T12:20:32.828Z,6.20
2017-10-14T12:23:01.974Z,6.10
2017-10-14T12:25:31.336Z,5.90
2017-10-14T12:28:01.501Z,5.90
2017-10-14T12:30:32.440Z,5.80
2017-10-14T12:33:01.573Z,6.10
2017-10-14T12:35:30.871Z,5.80
2017-10-14T12:38:00.267Z,5.80
2017-10-14T12:40:29.495Z,5.80
2017-10-14T12:42:58.930Z,5.80
2017-10-14T12:45:28.323Z,5.80
2017-10-14T12:47:57.655Z,5.70
2017-10-14T12:50:26.806Z,5.50
2017-10-14T12:52:57.063Z,5.70
2017-10-14T12:55:26.361Z,5.50
2017-10-14T12:57:55.595Z,5.50
2017-10-14T13:00:24.961Z,5.70
2017-10-14T13:02:54.219Z,5.60
2017-10-14T13:05:23.795Z,5.40
2017-10-14T13:07:53.335Z,5.40
2017-10-14T13:10:22.596Z,5.50
2017-10-14T13:12:51.726Z,5.20
2017-10-14T13:15:20.953Z,5.20
2017-10-14T13:17:50.265Z,5.20
2017-10-14T13:20:19.516Z,5.30
2017-10-14T13:22:48.975Z,5.20
2017-10-14T13:25:18.326Z,5.20
2017-10-14T13:27:47.640Z,5.20
2017-10-14T13:30:18.003Z,5.20
2017-10-14T13:32:48.560Z,5.20
2017-10-14T13:35:17.762Z,5.20
2017-10-14T13:37:46.843Z,5.20
2017-10-14T13:40:16.071Z,5.10
2017-10-14T13:42:45.688Z,5.40
2017-10-14T13:45:15.417Z,5.10
2017-10-14T13:47:45.560Z,5.30
2017-10-14T13:50:14.793Z,5.10
2017-10-14T13:52:44.749Z,5.20
2017-10-14T13:55:14.059Z,5.20
2017-10-14T13:57:43.425Z,5.10
2017-10-14T14:00:12.650Z,5.10
2017-10-14T14:02:41.940Z,5.10
2017-10-14T14:05:11.340Z,5.20
2017-10-14T14:07:41.483Z,5.10
2017-10-14T14:10:11.049Z,5.10
2017-10-14T14:12:40.268Z,5.20
2017-10-14T14:15:09.922Z,5.00
2017-10-14T14:17:39.677Z,4.60
2017-10-14T14:20:08.817Z,4.60
2017-10-14T14:22:38.344Z,4.50
2017-10-14T14:25:07.501Z,4.60
2017-10-14T14:27:36.560Z,4.60
2017-10-14T14:30:06.067Z,4.60
2017-10-14T14:32:35.565Z,4.70
2017-10-14T14:35:05.603Z,4.80
2017-10-14T14:37:35.077Z,4.90
2017-10-14T14:40:04.488Z,5.00
2017-10-14T14:42:33.726Z,4.90
2017-10-14T14:45:03.810Z,4.90
2017-10-14T14:47:32.984Z,5.20
2017-10-14T14:50:02.367Z,5.20
2017-10-14T14:52:31.619Z,5.10
2017-10-14T14:55:00.858Z,5.20
2017-10-14T14:57:30.219Z,5.30
2017-10-14T14:59:59.858Z,5.40
2017-10-14T15:02:29.247Z,5.50
2017-10-14T15:04:59.743Z,5.70
2017-10-14T15:07:28.924Z,5.80
2017-10-14T15:09:58.519Z,5.90
2017-10-14T15:12:27.848Z,6.00
2017-10-14T15:14:56.976Z,6.10
2017-10-14T15:17:26.289Z,6.00
2017-10-14T15:19:56.618Z,6.00
2017-10-14T15:22:26.524Z,5.70
2017-10-14T15:24:55.685Z,5.70
2017-10-14T15:27:25.127Z,5.80
2017-10-14T15:29:54.488Z,6.30
2017-10-14T15:32:23.737Z,5.80
2017-10-14T15:34:53.210Z,5.80
2017-10-14T15:37:22.526Z,5.50
2017-10-14T15:39:52.747Z,5.60
2017-10-14T15:42:23.088Z,5.80
2017-10-14T15:44:52.494Z,5.70
2017-10-14T15:47:21.830Z,5.50
2017-10-14T15:49:51.046Z,5.80
2017-10-14T15:52:20.315Z,5.80
2017-10-14T15:54:49.765Z,6.30
2017-10-14T15:57:19.128Z,6.10
2017-10-14T15:59:48.225Z,6.20
2017-10-14T16:02:17.658Z,6.80
2017-10-14T16:04:46.969Z,6.60
2017-10-14T16:07:16.168Z,7.00
2017-10-14T16:09:45.496Z,7.00
2017-10-14T16:12:14.733Z,7.00
2017-10-14T16:14:43.879Z,7.00
2017-10-14T16:17:13.953Z,6.40
2017-10-14T16:19:43.225Z,6.70
2017-10-14T16:22:12.540Z,6.10
2017-10-14T16:24:41.803Z,6.40
2017-10-14T16:27:11.879Z,6.60
2017-10-14T16:29:41.500Z,6.70
2017-10-14T16:32:10.971Z,6.80
2017-10-14T16:34:40.364Z,7.00
2017-10-14T16:37:10.899Z,7.30
2017-10-14T16:39:40.118Z,7.30
2017-10-14T16:42:09.613Z,7.10
2017-10-14T16:44:38.936Z,6.90
2017-10-14T16:47:08.264Z,7.30
2017-10-14T16:49:37.348Z,7.40
2017-10-14T16:52:06.701Z,6.90
2017-10-14T16:54:35.942Z,7.10
2017-10-14T16:57:05.240Z,7.30
2017-10-14T16:59:34.777Z,7.70
2017-10-14T17:02:04.999Z,7.80
2017-10-14T17:04:35.278Z,7.80
2017-10-14T17:07:04.590Z,7.80
2017-10-14T17:09:33.841Z,8.00
2017-10-14T17:12:03.361Z,8.00
2017-10-14T17:14:32.582Z,8.10
2017-10-14T17:17:01.907Z,8.00
2017-10-14T17:19:31.444Z,8.40
2017-10-14T17:22:01.008Z,8.40
2017-10-14T17:24:30.272Z,8.60
2017-10-14T17:26:59.780Z,8.10
2017-10-14T17:29:29.013Z,8.20
2017-10-14T17:31:58.589Z,8.10
2017-10-14T17:34:28.190Z,8.30
2017-10-14T17:36:57.434Z,8.30
2017-10-14T17:39:28.534Z,8.40
2017-10-14T17:41:57.660Z,8.70
2017-10-14T17:44:26.852Z,8.90
2017-10-14T17:46:56.159Z,9.20
2017-10-14T17:49:25.826Z,9.10
2017-10-14T17:51:55.298Z,9.30
2017-10-14T17:54:24.971Z,8.80
2017-10-14T17:56:54.502Z,8.80
2017-10-14T17:59:23.620Z,9.30
2017-10-14T18:01:52.954Z,9.20
2017-10-14T18:04:22.232Z,9.80
2017-10-14T18:06:51.581Z,10.10
2017-10-14T18:09:21.023Z,9.60
2017-10-14T18:11:51.188Z,10.00
2017-10-14T18:14:20.272Z,10.20
2017-10-14T18:16:49.610Z,10.30
2017-10-14T18:19:19.029Z,10.70
2017-10-14T18:21:48.335Z,10.60
2017-10-14T18:24:17.878Z,10.90
2017-10-14T18:26:47.104Z,11.10
2017-10-14T18:29:16.898Z,11.20
2017-10-14T18:31:46.264Z,11.00
2017-10-14T18:34:15.504Z,10.50
2017-10-14T18:36:44.723Z,10.50
2017-10-14T18:39:15.234Z,10.20
2017-10-14T18:41:46.397Z,10.60
2017-10-14T18:44:15.760Z,10.90
2017-10-14T18:46:46.061Z,11.50
2017-10-14T18:49:16.466Z,11.50
2017-10-14T18:51:45.961Z,11.50
2017-10-14T18:54:15.445Z,11.40
2017-10-14T18:56:44.632Z,11.20
2017-10-14T18:59:14.122Z,11.50
2017-10-14T19:01:44.186Z,12.20
2017-10-14T19:04:15.877Z,12.10
2017-10-14T19:06:46.152Z,12.20
2017-10-14T19:09:15.499Z,12.00
2017-10-14T19:11:45.580Z,10.90
2017-10-14T19:14:15.266Z,10.90
2017-10-14T19:16:44.967Z,10.90
2017-10-14T19:19:14.244Z,10.70
2017-10-14T19:21:44.401Z,10.90
2017-10-14T19:24:13.645Z,10.60
2017-10-14T19:26:43.045Z,10.80
2017-10-14T19:29:12.371Z,10.90
2017-10-14T19:31:41.577Z,11.00
2017-10-14T19:34:11.518Z,11.30
2017-10-14T19:36:40.907Z,11.40
2017-10-14T19:39:10.182Z,11.40
2017-10-14T19:41:40.385Z,11.00
2017-10-14T19:44:10.487Z,10.80
2017-10-14T19:46:39.850Z,10.90
2017-10-14T19:49:09.328Z,10.80
2017-10-14T19:51:38.541Z,11.10
2017-10-14T19:54:08.390Z,11.70
2017-10-14T19:56:37.779Z,11.60
2017-10-14T19:59:06.946Z,11.60
2017-10-14T20:01:36.683Z,11.60
2017-10-14T20:04:05.955Z,11.70
2017-10-14T20:06:35.897Z,11.40
2017-10-14T20:09:05.320Z,11.40
2017-10-14T20:11:34.608Z,11.30
2017-10-14T20:14:03.807Z,11.20
2017-10-14T20:16:32.991Z,11.40
2017-10-14T20:19:02.434Z,11.40
2017-10-14T20:21:31.893Z,11.30
2017-10-14T20:24:01.158Z,11.30
2017-10-14T20:26:30.709Z,11.30
2017-10-14T20:28:59.752Z,11.50
2017-10-14T20:31:29.402Z,11.30
2017-10-14T20:33:58.605Z,11.50
2017-10-14T20:36:29.063Z,11.70
2017-10-14T20:38:58.253Z,11.60
2017-10-14T20:41:27.884Z,11.20
2017-10-14T20:43:58.441Z,11.40
2017-10-14T20:46:28.681Z,11.40
2017-10-14T20:48:58.733Z,11.60
2017-10-14T20:51:27.893Z,11.50
2017-10-14T20:53:57.839Z,11.60
2017-10-14T20:56:27.228Z,11.60
2017-10-14T20:58:56.760Z,12.00
2017-10-14T21:01:25.766Z,11.90
2017-10-14T21:03:55.147Z,11.80
2017-10-14T21:06:24.765Z,12.00
2017-10-14T21:08:53.985Z,12.40
2017-10-14T21:11:23.260Z,12.10
2017-10-14T21:13:52.514Z,12.10
2017-10-14T21:16:22.445Z,12.20
2017-10-14T21:18:52.713Z,12.40
2017-10-14T21:21:22.201Z,12.10
2017-10-14T21:23:51.571Z,12.50
2017-10-14T21:26:22.236Z,12.40
2017-10-14T21:28:51.472Z,12.40
2017-10-14T21:31:20.479Z,12.50
2017-10-14T21:33:49.847Z,12.40
2017-10-14T21:36:19.253Z,12.50
2017-10-14T21:38:48.544Z,12.50
2017-10-14T21:41:17.771Z,12.60
2017-10-14T21:43:47.298Z,12.60
2017-10-14T21:46:16.625Z,12.90
2017-10-14T21:48:47.141Z,12.80
2017-10-14T21:51:16.612Z,12.80
2017-10-14T21:53:45.807Z,12.80
2017-10-14T21:56:15.012Z,12.90
2017-10-14T21:58:44.133Z,13.00
2017-10-14T22:01:13.574Z,13.10
2017-10-14T22:03:42.903Z,13.20
2017-10-14T22:06:12.272Z,13.20
2017-10-14T22:08:41.896Z,13.30
2017-10-14T22:11:11.265Z,13.20
2017-10-14T22:13:40.559Z,13.40
2017-10-14T22:16:09.809Z,13.50
2017-10-14T22:18:38.964Z,13.60
2017-10-14T22:21:08.213Z,13.60
2017-10-14T22:23:37.535Z,13.70
2017-10-14T22:26:07.491Z,13.50
2017-10-14T22:28:36.592Z,13.50
2017-10-14T22:31:05.713Z,13.60
2017-10-14T22:33:35.178Z,13.70
2017-10-14T22:36:04.706Z,13.70
2017-10-14T22:38:33.830Z,13.90
2017-10-14T22:41:03.118Z,13.80
2017-10-14T22:43:32.433Z,13.80
2017-10-14T22:46:01.771Z,13.80
2017-10-14T22:48:31.331Z,13.90
2017-10-14T22:51:02.084Z,13.90
2017-10-14T22:53:30.828Z,14.00
2017-10-14T22:55:59.530Z,14.10
2017-10-14T22:58:28.252Z,14.10
2017-10-14T23:00:56.973Z,14.20
2017-10-14T23:03:25.709Z,14.20
2017-10-14T23:05:54.527Z,14.30
2017-10-14T23:08:24.124Z,14.30
2017-10-14T23:10:53.452Z,14.20
2017-10-14T23:13:23.265Z,14.30
2017-10-14T23:15:52.616Z,14.30
2017-10-14T23:18:21.784Z,14.30
2017-10-14T23:20:50.980Z,14.40
2017-10-14T23:23:20.231Z,14.40
2017-10-14T23:25:49.456Z,14.40
2017-10-14T23:28:19.635Z,14.40
2017-10-14T23:30:48.836Z,14.40
2017-10-14T23:33:17.848Z,14.40
2017-10-14T23:35:47.208Z,14.40
2017-10-14T23:38:16.559Z,14.40
2017-10-14T23:40:46.653Z,14.40
2017-10-14T23:43:15.960Z,14.40
2017-10-14T23:45:45.495Z,14.40
2017-10-14T23:48:15.244Z,14.40
2017-10-14T23:50:44.547Z,14.40
2017-10-14T23:53:14.821Z,14.40
2017-10-14T23:55:45.279Z,14.40
2017-10-14T23:58:14.482Z,14.40
